TimeHST,TemperatureF,Dew PointF,Humidity,Sea Level PressureIn,VisibilityMPH,Wind Direction,Wind SpeedMPH,Gust SpeedMPH,PrecipitationIn,Events,Conditions,WindDirDegrees,DateUTC
12:53 AM,77.0,68.0,74,30.03,10.0,ENE,10.4,-,N/A,,Mostly Cloudy,70,2012-10-04 10:53:00
1:53 AM,75.9,66.9,74,30.02,10.0,East,8.1,-,N/A,,Clear,80,2012-10-04 11:53:00
2:53 AM,75.9,68.0,76,30.01,10.0,East,8.1,-,N/A,,Clear,80,2012-10-04 12:53:00
3:21 AM,75.2,68.0,78,30.01,10.0,ENE,6.9,-,N/A,,Mostly Cloudy,70,2012-10-04 13:21:00
3:36 AM,75.2,66.2,73,30.01,10.0,East,6.9,-,N/A,,Partly Cloudy,80,2012-10-04 13:36:00
3:53 AM,75.9,66.9,74,30.00,10.0,ENE,6.9,-,N/A,,Clear,70,2012-10-04 13:53:00
4:53 AM,73.9,66.9,79,30.00,10.0,Calm,Calm,-,N/A,,Scattered Clouds,0,2012-10-04 14:53:00
5:40 AM,73.4,68.0,83,30.02,10.0,West,4.6,-,N/A,,Mostly Cloudy,260,2012-10-04 15:40:00
5:53 AM,73.0,66.9,81,30.01,10.0,West,5.8,-,N/A,,Mostly Cloudy,270,2012-10-04 15:53:00
6:53 AM,73.0,66.9,81,30.02,10.0,West,6.9,-,N/A,,Mostly Cloudy,280,2012-10-04 16:53:00
7:01 AM,73.4,68.0,83,30.03,10.0,West,5.8,-,N/A,,Mostly Cloudy,270,2012-10-04 17:01:00
7:39 AM,77.0,68.0,74,30.03,10.0,Calm,Calm,-,0.00,,Scattered Clouds,0,2012-10-04 17:39:00
7:53 AM,78.1,68.0,71,30.03,10.0,Calm,Calm,-,0.00,,Scattered Clouds,0,2012-10-04 17:53:00
8:53 AM,80.1,66.9,64,30.04,10.0,East,8.1,-,N/A,,Partly Cloudy,100,2012-10-04 18:53:00
9:53 AM,81.0,68.0,65,30.05,10.0,ENE,8.1,-,N/A,,Scattered Clouds,60,2012-10-04 19:53:00
10:53 AM,82.0,68.0,62,30.04,10.0,ENE,10.4,-,N/A,,Mostly Cloudy,70,2012-10-04 20:53:00
11:53 AM,82.9,68.0,60,30.03,10.0,ENE,10.4,-,N/A,,Clear,70,2012-10-04 21:53:00
12:53 PM,84.0,66.9,56,30.01,10.0,East,11.5,-,N/A,,Clear,80,2012-10-04 22:53:00
1:53 PM,82.0,68.0,62,29.99,10.0,East,11.5,-,N/A,,Clear,80,2012-10-04 23:53:00
2:53 PM,82.0,66.9,60,29.99,10.0,ENE,9.2,-,N/A,,Clear,60,2012-10-05 00:53:00
3:53 PM,81.0,66.9,62,29.98,10.0,ENE,9.2,-,N/A,,Clear,70,2012-10-05 01:53:00
4:53 PM,79.0,66.9,66,29.98,10.0,ENE,8.1,-,N/A,,Scattered Clouds,70,2012-10-05 02:53:00
5:53 PM,78.1,68.0,71,29.99,10.0,East,6.9,-,N/A,,Scattered Clouds,90,2012-10-05 03:53:00
6:53 PM,77.0,66.9,71,30.00,10.0,ENE,6.9,-,N/A,,Mostly Cloudy,70,2012-10-05 04:53:00
7:53 PM,77.0,68.0,74,30.02,10.0,ENE,8.1,-,N/A,,Scattered Clouds,70,2012-10-05 05:53:00
8:33 PM,77.0,68.0,74,30.03,10.0,ENE,8.1,-,N/A,,Mostly Cloudy,70,2012-10-05 06:33:00
8:42 PM,77.0,68.0,74,30.04,10.0,ENE,6.9,-,N/A,,Mostly Cloudy,60,2012-10-05 06:42:00
8:53 PM,77.0,68.0,74,30.03,10.0,ENE,8.1,-,N/A,,Scattered Clouds,70,2012-10-05 06:53:00
9:53 PM,75.9,69.1,79,30.04,10.0,NE,6.9,-,N/A,,Clear,50,2012-10-05 07:53:00
10:53 PM,77.0,68.0,74,30.04,10.0,NE,6.9,-,N/A,,Overcast,40,2012-10-05 08:53:00
11:07 PM,77.0,68.0,74,30.04,10.0,NE,4.6,-,N/A,,Overcast,50,2012-10-05 09:07:00
11:34 PM,75.2,68.0,78,30.04,10.0,Calm,Calm,-,N/A,,Scattered Clouds,0,2012-10-05 09:34:00
11:53 PM,73.9,68.0,82,30.02,10.0,WNW,4.6,-,N/A,,Mostly Cloudy,290,2012-10-05 09:53:00